sensor_id;sensor_type;location;lat;lon;timestamp;temperature;humidity
10155;DHT22;5118;48.570;7.916;2024-02-04T00:00:31;7.30;99.90
10155;DHT22;5118;48.570;7.916;2024-02-04T00:03:00;7.30;99.90
10155;DHT22;5118;48.570;7.916;2024-02-04T00:05:28;7.30;99.90
10155;DHT22;5118;48.570;7.916;2024-02-04T00:07:57;7.30;99.90
10155;DHT22;5118;48.570;7.916;2024-02-04T00:10:25;7.30;99.90
10155;DHT22;5118;48.570;7.916;2024-02-04T00:12:57;7.30;99.90
10155;DHT22;5118;48.570;7.916;2024-02-04T00:15:27;7.30;99.90
10155;DHT22;5118;48.570;7.916;2024-02-04T00:17:56;7.30;99.90
10155;DHT22;5118;48.570;7.916;2024-02-04T00:20:24;7.30;99.90
10155;DHT22;5118;48.570;7.916;2024-02-04T00:22:54;7.30;99.90
10155;DHT22;5118;48.570;7.916;2024-02-04T00:25:23;7.30;99.90
10155;DHT22;5118;48.570;7.916;2024-02-04T00:27:51;7.30;99.90
10155;DHT22;5118;48.570;7.916;2024-02-04T00:30:20;7.30;99.90
10155;DHT22;5118;48.570;7.916;2024-02-04T00:32:50;7.30;99.90
10155;DHT22;5118;48.570;7.916;2024-02-04T00:35:18;7.30;99.90
10155;DHT22;5118;48.570;7.916;2024-02-04T00:37:47;7.20;99.90
10155;DHT22;5118;48.570;7.916;2024-02-04T00:40:15;7.30;99.90
10155;DHT22;5118;48.570;7.916;2024-02-04T00:42:44;7.30;99.90
10155;DHT22;5118;48.570;7.916;2024-02-04T00:45:12;7.20;99.90
10155;DHT22;5118;48.570;7.916;2024-02-04T00:47:41;7.20;99.90
10155;DHT22;5118;48.570;7.916;2024-02-04T00:50:11;7.20;99.90
10155;DHT22;5118;48.570;7.916;2024-02-04T00:52:39;7.10;99.90
10155;DHT22;5118;48.570;7.916;2024-02-04T00:55:08;7.10;99.90
10155;DHT22;5118;48.570;7.916;2024-02-04T00:57:37;7.10;99.90
10155;DHT22;5118;48.570;7.916;2024-02-04T01:00:06;7.20;99.90
10155;DHT22;5118;48.570;7.916;2024-02-04T01:02:35;7.20;99.90
10155;DHT22;5118;48.570;7.916;2024-02-04T01:05:05;7.20;99.90
10155;DHT22;5118;48.570;7.916;2024-02-04T01:07:35;7.10;99.90
10155;DHT22;5118;48.570;7.916;2024-02-04T01:10:04;7.20;99.90
10155;DHT22;5118;48.570;7.916;2024-02-04T01:12:36;7.20;99.90
10155;DHT22;5118;48.570;7.916;2024-02-04T01:15:05;7.30;99.90
10155;DHT22;5118;48.570;7.916;2024-02-04T01:17:33;7.30;99.90
10155;DHT22;5118;48.570;7.916;2024-02-04T01:20:02;7.30;99.90
10155;DHT22;5118;48.570;7.916;2024-02-04T01:22:31;7.30;99.90
10155;DHT22;5118;48.570;7.916;2024-02-04T01:25:00;7.20;99.90
10155;DHT22;5118;48.570;7.916;2024-02-04T01:27:30;7.20;99.90
10155;DHT22;5118;48.570;7.916;2024-02-04T01:29:58;7.20;99.90
10155;DHT22;5118;48.570;7.916;2024-02-04T01:32:28;7.10;99.90
10155;DHT22;5118;48.570;7.916;2024-02-04T01:34:56;7.20;99.90
10155;DHT22;5118;48.570;7.916;2024-02-04T01:37:25;7.20;99.90
10155;DHT22;5118;48.570;7.916;2024-02-04T01:39:53;7.20;99.90
10155;DHT22;5118;48.570;7.916;2024-02-04T01:42:23;7.30;99.90
10155;DHT22;5118;48.570;7.916;2024-02-04T01:44:51;7.30;99.90
10155;DHT22;5118;48.570;7.916;2024-02-04T01:47:20;7.30;99.90
10155;DHT22;5118;48.570;7.916;2024-02-04T01:49:48;7.30;99.90
10155;DHT22;5118;48.570;7.916;2024-02-04T01:52:17;7.30;99.90
10155;DHT22;5118;48.570;7.916;2024-02-04T01:54:46;7.30;99.90
10155;DHT22;5118;48.570;7.916;2024-02-04T01:57:17;7.30;99.90
10155;DHT22;5118;48.570;7.916;2024-02-04T01:59:47;7.30;99.90
10155;DHT22;5118;48.570;7.916;2024-02-04T02:02:19;7.30;99.90
10155;DHT22;5118;48.570;7.916;2024-02-04T02:04:47;7.30;99.90
10155;DHT22;5118;48.570;7.916;2024-02-04T02:07:16;7.30;99.90
10155;DHT22;5118;48.570;7.916;2024-02-04T02:09:47;7.30;99.90
10155;DHT22;5118;48.570;7.916;2024-02-04T02:12:19;7.30;99.90
10155;DHT22;5118;48.570;7.916;2024-02-04T02:14:56;7.30;99.90
10155;DHT22;5118;48.570;7.916;2024-02-04T02:17:33;7.20;99.90
10155;DHT22;5118;48.570;7.916;2024-02-04T02:20:11;7.20;99.90
10155;DHT22;5118;48.570;7.916;2024-02-04T02:22:47;7.10;99.90
10155;DHT22;5118;48.570;7.916;2024-02-04T02:25:20;7.10;99.90
10155;DHT22;5118;48.570;7.916;2024-02-04T02:27:50;7.10;99.90
10155;DHT22;5118;48.570;7.916;2024-02-04T02:30:18;7.10;99.90
10155;DHT22;5118;48.570;7.916;2024-02-04T02:32:49;7.00;99.90
10155;DHT22;5118;48.570;7.916;2024-02-04T02:35:17;7.00;99.90
10155;DHT22;5118;48.570;7.916;2024-02-04T02:37:55;7.00;99.90
10155;DHT22;5118;48.570;7.916;2024-02-04T02:40:30;7.00;99.90
10155;DHT22;5118;48.570;7.916;2024-02-04T02:43:02;7.00;99.90
10155;DHT22;5118;48.570;7.916;2024-02-04T02:45:31;7.00;99.90
10155;DHT22;5118;48.570;7.916;2024-02-04T02:48:00;7.00;99.90
10155;DHT22;5118;48.570;7.916;2024-02-04T02:50:29;6.90;99.90
10155;DHT22;5118;48.570;7.916;2024-02-04T02:52:58;7.00;99.90
10155;DHT22;5118;48.570;7.916;2024-02-04T02:55:28;6.90;99.90
10155;DHT22;5118;48.570;7.916;2024-02-04T02:57:56;6.90;99.90
10155;DHT22;5118;48.570;7.916;2024-02-04T03:00:25;6.90;99.90
10155;DHT22;5118;48.570;7.916;2024-02-04T03:02:53;6.90;99.90
10155;DHT22;5118;48.570;7.916;2024-02-04T03:05:22;6.90;99.90
10155;DHT22;5118;48.570;7.916;2024-02-04T03:07:50;6.90;99.90
10155;DHT22;5118;48.570;7.916;2024-02-04T03:10:19;6.90;99.90
10155;DHT22;5118;48.570;7.916;2024-02-04T03:12:49;6.90;99.90
10155;DHT22;5118;48.570;7.916;2024-02-04T03:15:17;6.90;99.90
10155;DHT22;5118;48.570;7.916;2024-02-04T03:17:48;6.90;99.90
10155;DHT22;5118;48.570;7.916;2024-02-04T03:20:17;6.90;99.90
10155;DHT22;5118;48.570;7.916;2024-02-04T03:22:46;6.90;99.90
10155;DHT22;5118;48.570;7.916;2024-02-04T03:25:14;6.90;99.90
10155;DHT22;5118;48.570;7.916;2024-02-04T03:27:43;6.90;99.90
10155;DHT22;5118;48.570;7.916;2024-02-04T03:30:14;6.90;99.90
10155;DHT22;5118;48.570;7.916;2024-02-04T03:32:42;6.90;99.90
10155;DHT22;5118;48.570;7.916;2024-02-04T03:35:11;6.90;99.90
10155;DHT22;5118;48.570;7.916;2024-02-04T03:37:40;6.90;99.90
10155;DHT22;5118;48.570;7.916;2024-02-04T03:40:09;6.90;99.90
10155;DHT22;5118;48.570;7.916;2024-02-04T03:42:38;6.90;99.90
10155;DHT22;5118;48.570;7.916;2024-02-04T03:45:08;6.90;99.90
10155;DHT22;5118;48.570;7.916;2024-02-04T03:47:38;6.90;99.90
10155;DHT22;5118;48.570;7.916;2024-02-04T03:50:08;6.90;99.90
10155;DHT22;5118;48.570;7.916;2024-02-04T03:52:36;6.90;99.90
10155;DHT22;5118;48.570;7.916;2024-02-04T03:55:05;6.90;99.90
10155;DHT22;5118;48.570;7.916;2024-02-04T03:57:34;6.90;99.90
10155;DHT22;5118;48.570;7.916;2024-02-04T04:00:03;6.90;99.90
10155;DHT22;5118;48.570;7.916;2024-02-04T04:02:40;6.90;99.90
10155;DHT22;5118;48.570;7.916;2024-02-04T04:05:11;6.90;99.90
10155;DHT22;5118;48.570;7.916;2024-02-04T04:07:40;6.90;99.90
10155;DHT22;5118;48.570;7.916;2024-02-04T04:10:09;6.90;99.90
10155;DHT22;5118;48.570;7.916;2024-02-04T04:12:37;6.90;99.90
10155;DHT22;5118;48.570;7.916;2024-02-04T04:15:07;6.80;99.90
10155;DHT22;5118;48.570;7.916;2024-02-04T04:17:35;6.90;99.90
10155;DHT22;5118;48.570;7.916;2024-02-04T04:20:07;6.80;99.90
10155;DHT22;5118;48.570;7.916;2024-02-04T04:22:38;6.80;99.90
10155;DHT22;5118;48.570;7.916;2024-02-04T04:25:08;6.80;99.90
10155;DHT22;5118;48.570;7.916;2024-02-04T04:27:37;6.80;99.90
10155;DHT22;5118;48.570;7.916;2024-02-04T04:30:07;6.70;99.90
10155;DHT22;5118;48.570;7.916;2024-02-04T04:32:36;6.70;99.90
10155;DHT22;5118;48.570;7.916;2024-02-04T04:35:07;6.60;99.90
10155;DHT22;5118;48.570;7.916;2024-02-04T04:37:35;6.60;99.90
10155;DHT22;5118;48.570;7.916;2024-02-04T04:40:04;6.70;99.90
10155;DHT22;5118;48.570;7.916;2024-02-04T04:42:33;6.70;99.90
10155;DHT22;5118;48.570;7.916;2024-02-04T04:45:01;6.70;99.90
10155;DHT22;5118;48.570;7.916;2024-02-04T04:47:30;6.70;99.90
10155;DHT22;5118;48.570;7.916;2024-02-04T04:49:59;6.80;99.90
10155;DHT22;5118;48.570;7.916;2024-02-04T04:52:29;6.80;99.90
10155;DHT22;5118;48.570;7.916;2024-02-04T04:54:57;6.80;99.90
10155;DHT22;5118;48.570;7.916;2024-02-04T04:57:26;6.80;99.90
10155;DHT22;5118;48.570;7.916;2024-02-04T04:59:54;6.90;99.90
10155;DHT22;5118;48.570;7.916;2024-02-04T05:02:25;6.90;99.90
10155;DHT22;5118;48.570;7.916;2024-02-04T05:04:54;6.90;99.90
10155;DHT22;5118;48.570;7.916;2024-02-04T05:07:22;6.90;99.90
10155;DHT22;5118;48.570;7.916;2024-02-04T05:09:52;6.90;99.90
10155;DHT22;5118;48.570;7.916;2024-02-04T05:12:21;6.90;99.90
10155;DHT22;5118;48.570;7.916;2024-02-04T05:14:49;6.90;99.90
10155;DHT22;5118;48.570;7.916;2024-02-04T05:17:17;7.00;99.90
10155;DHT22;5118;48.570;7.916;2024-02-04T05:19:46;6.90;99.90
10155;DHT22;5118;48.570;7.916;2024-02-04T05:22:14;7.00;99.90
10155;DHT22;5118;48.570;7.916;2024-02-04T05:24:43;7.00;99.90
10155;DHT22;5118;48.570;7.916;2024-02-04T05:27:12;7.00;99.90
10155;DHT22;5118;48.570;7.916;2024-02-04T05:29:41;7.00;99.90
10155;DHT22;5118;48.570;7.916;2024-02-04T05:32:09;7.00;99.90
10155;DHT22;5118;48.570;7.916;2024-02-04T05:34:38;7.00;99.90
10155;DHT22;5118;48.570;7.916;2024-02-04T05:37:06;7.00;99.90
10155;DHT22;5118;48.570;7.916;2024-02-04T05:39:35;7.10;99.90
10155;DHT22;5118;48.570;7.916;2024-02-04T05:42:04;7.10;99.90
10155;DHT22;5118;48.570;7.916;2024-02-04T05:44:34;7.10;99.90
10155;DHT22;5118;48.570;7.916;2024-02-04T05:47:02;7.10;99.90
10155;DHT22;5118;48.570;7.916;2024-02-04T05:49:31;7.10;99.90
10155;DHT22;5118;48.570;7.916;2024-02-04T05:52:00;7.10;99.90
10155;DHT22;5118;48.570;7.916;2024-02-04T05:54:28;7.10;99.90
10155;DHT22;5118;48.570;7.916;2024-02-04T05:56:57;7.10;99.90
10155;DHT22;5118;48.570;7.916;2024-02-04T05:59:25;7.00;99.90
10155;DHT22;5118;48.570;7.916;2024-02-04T06:01:55;7.00;99.90
10155;DHT22;5118;48.570;7.916;2024-02-04T06:04:23;7.00;99.90
10155;DHT22;5118;48.570;7.916;2024-02-04T06:06:52;7.00;99.90
10155;DHT22;5118;48.570;7.916;2024-02-04T06:09:20;7.00;99.90
10155;DHT22;5118;48.570;7.916;2024-02-04T06:11:49;7.00;99.90
10155;DHT22;5118;48.570;7.916;2024-02-04T06:14:17;7.00;99.90
10155;DHT22;5118;48.570;7.916;2024-02-04T06:16:46;7.00;99.90
10155;DHT22;5118;48.570;7.916;2024-02-04T06:19:15;7.00;99.90
10155;DHT22;5118;48.570;7.916;2024-02-04T06:21:44;7.00;99.90
10155;DHT22;5118;48.570;7.916;2024-02-04T06:24:12;7.00;99.90
10155;DHT22;5118;48.570;7.916;2024-02-04T06:26:41;7.00;99.90
10155;DHT22;5118;48.570;7.916;2024-02-04T06:29:10;7.00;99.90
10155;DHT22;5118;48.570;7.916;2024-02-04T06:31:38;7.00;99.90
10155;DHT22;5118;48.570;7.916;2024-02-04T06:34:07;7.00;99.90
10155;DHT22;5118;48.570;7.916;2024-02-04T06:36:37;7.00;99.90
10155;DHT22;5118;48.570;7.916;2024-02-04T06:39:06;7.00;99.90
10155;DHT22;5118;48.570;7.916;2024-02-04T06:41:35;7.00;99.90
10155;DHT22;5118;48.570;7.916;2024-02-04T06:44:04;7.00;99.90
10155;DHT22;5118;48.570;7.916;2024-02-04T06:46:32;7.00;99.90
10155;DHT22;5118;48.570;7.916;2024-02-04T06:49:01;7.00;99.90
10155;DHT22;5118;48.570;7.916;2024-02-04T06:51:29;7.00;99.90
10155;DHT22;5118;48.570;7.916;2024-02-04T06:53:59;7.00;99.90
10155;DHT22;5118;48.570;7.916;2024-02-04T06:56:28;7.10;99.90
10155;DHT22;5118;48.570;7.916;2024-02-04T06:58:57;7.00;99.90
10155;DHT22;5118;48.570;7.916;2024-02-04T07:01:25;7.00;99.90
10155;DHT22;5118;48.570;7.916;2024-02-04T07:03:54;7.00;99.90
10155;DHT22;5118;48.570;7.916;2024-02-04T07:06:22;7.00;99.90
10155;DHT22;5118;48.570;7.916;2024-02-04T07:08:51;7.00;99.90
10155;DHT22;5118;48.570;7.916;2024-02-04T07:11:21;7.00;99.90
10155;DHT22;5118;48.570;7.916;2024-02-04T07:13:49;6.90;99.90
10155;DHT22;5118;48.570;7.916;2024-02-04T07:16:18;6.90;99.90
10155;DHT22;5118;48.570;7.916;2024-02-04T07:18:47;6.90;99.90
10155;DHT22;5118;48.570;7.916;2024-02-04T07:21:15;6.90;99.90
10155;DHT22;5118;48.570;7.916;2024-02-04T07:23:44;7.00;99.90
10155;DHT22;5118;48.570;7.916;2024-02-04T07:26:12;7.00;99.90
10155;DHT22;5118;48.570;7.916;2024-02-04T07:28:42;7.00;99.90
10155;DHT22;5118;48.570;7.916;2024-02-04T07:31:10;7.00;99.90
10155;DHT22;5118;48.570;7.916;2024-02-04T07:33:39;7.00;99.90
10155;DHT22;5118;48.570;7.916;2024-02-04T07:36:10;7.00;99.90
10155;DHT22;5118;48.570;7.916;2024-02-04T07:38:39;7.00;99.90
10155;DHT22;5118;48.570;7.916;2024-02-04T07:41:07;7.00;99.90
10155;DHT22;5118;48.570;7.916;2024-02-04T07:43:36;7.00;99.90
10155;DHT22;5118;48.570;7.916;2024-02-04T07:46:06;7.00;99.90
10155;DHT22;5118;48.570;7.916;2024-02-04T07:48:35;7.00;99.90
10155;DHT22;5118;48.570;7.916;2024-02-04T07:51:06;7.00;99.90
10155;DHT22;5118;48.570;7.916;2024-02-04T07:53:35;7.10;99.90
10155;DHT22;5118;48.570;7.916;2024-02-04T07:56:04;7.10;99.90
10155;DHT22;5118;48.570;7.916;2024-02-04T07:58:34;7.10;99.90
10155;DHT22;5118;48.570;7.916;2024-02-04T08:01:02;7.10;99.90
10155;DHT22;5118;48.570;7.916;2024-02-04T08:03:32;7.10;99.90
10155;DHT22;5118;48.570;7.916;2024-02-04T08:06:01;7.10;99.90
10155;DHT22;5118;48.570;7.916;2024-02-04T08:08:30;7.10;99.90
10155;DHT22;5118;48.570;7.916;2024-02-04T08:11:01;7.10;99.90
10155;DHT22;5118;48.570;7.916;2024-02-04T08:13:30;7.20;99.90
10155;DHT22;5118;48.570;7.916;2024-02-04T08:15:58;7.20;99.90
10155;DHT22;5118;48.570;7.916;2024-02-04T08:18:27;7.20;99.90
10155;DHT22;5118;48.570;7.916;2024-02-04T08:20:57;7.20;99.90
10155;DHT22;5118;48.570;7.916;2024-02-04T08:23:26;7.20;99.90
10155;DHT22;5118;48.570;7.916;2024-02-04T08:25:55;7.20;99.90
10155;DHT22;5118;48.570;7.916;2024-02-04T08:28:25;7.20;99.90
10155;DHT22;5118;48.570;7.916;2024-02-04T08:30:53;7.30;99.90
10155;DHT22;5118;48.570;7.916;2024-02-04T08:33:22;7.30;99.90
10155;DHT22;5118;48.570;7.916;2024-02-04T08:35:50;7.40;99.90
10155;DHT22;5118;48.570;7.916;2024-02-04T08:38:20;7.50;99.90
10155;DHT22;5118;48.570;7.916;2024-02-04T08:40:49;7.60;99.90
10155;DHT22;5118;48.570;7.916;2024-02-04T08:43:19;7.70;99.90
10155;DHT22;5118;48.570;7.916;2024-02-04T08:45:48;7.80;99.90
10155;DHT22;5118;48.570;7.916;2024-02-04T08:48:16;7.80;99.90
10155;DHT22;5118;48.570;7.916;2024-02-04T08:50:45;7.90;99.90
10155;DHT22;5118;48.570;7.916;2024-02-04T08:53:13;7.90;99.90
10155;DHT22;5118;48.570;7.916;2024-02-04T08:55:43;7.90;99.90
10155;DHT22;5118;48.570;7.916;2024-02-04T08:58:11;7.90;99.90
10155;DHT22;5118;48.570;7.916;2024-02-04T09:00:40;8.00;99.90
10155;DHT22;5118;48.570;7.916;2024-02-04T09:03:08;8.00;99.90
10155;DHT22;5118;48.570;7.916;2024-02-04T09:05:36;8.00;99.90
10155;DHT22;5118;48.570;7.916;2024-02-04T09:08:05;8.10;99.90
10155;DHT22;5118;48.570;7.916;2024-02-04T09:10:34;8.10;99.90
10155;DHT22;5118;48.570;7.916;2024-02-04T09:13:04;8.20;99.90
10155;DHT22;5118;48.570;7.916;2024-02-04T09:15:33;8.30;99.90
10155;DHT22;5118;48.570;7.916;2024-02-04T09:18:02;8.40;99.90
10155;DHT22;5118;48.570;7.916;2024-02-04T09:20:31;8.50;99.90
10155;DHT22;5118;48.570;7.916;2024-02-04T09:23:00;8.70;99.90
10155;DHT22;5118;48.570;7.916;2024-02-04T09:25:28;8.70;99.90
10155;DHT22;5118;48.570;7.916;2024-02-04T09:27:57;8.70;99.90
10155;DHT22;5118;48.570;7.916;2024-02-04T09:30:27;8.70;99.90
10155;DHT22;5118;48.570;7.916;2024-02-04T09:32:56;8.80;99.90
10155;DHT22;5118;48.570;7.916;2024-02-04T09:35:25;8.70;99.90
10155;DHT22;5118;48.570;7.916;2024-02-04T09:37:53;8.70;99.90
10155;DHT22;5118;48.570;7.916;2024-02-04T09:40:22;8.80;99.90
10155;DHT22;5118;48.570;7.916;2024-02-04T09:42:51;9.10;99.90
10155;DHT22;5118;48.570;7.916;2024-02-04T09:45:21;9.10;99.90
10155;DHT22;5118;48.570;7.916;2024-02-04T09:47:52;9.30;99.90
10155;DHT22;5118;48.570;7.916;2024-02-04T09:50:22;9.30;99.90
10155;DHT22;5118;48.570;7.916;2024-02-04T09:52:59;9.40;99.90
10155;DHT22;5118;48.570;7.916;2024-02-04T09:55:29;9.60;99.90
10155;DHT22;5118;48.570;7.916;2024-02-04T09:57:59;9.60;99.90
10155;DHT22;5118;48.570;7.916;2024-02-04T10:00:29;9.60;99.90
10155;DHT22;5118;48.570;7.916;2024-02-04T10:03:01;9.50;99.90
10155;DHT22;5118;48.570;7.916;2024-02-04T10:05:30;9.50;99.90
10155;DHT22;5118;48.570;7.916;2024-02-04T10:07:59;9.60;99.90
10155;DHT22;5118;48.570;7.916;2024-02-04T10:10:28;9.60;99.90
10155;DHT22;5118;48.570;7.916;2024-02-04T10:12:57;9.80;99.90
10155;DHT22;5118;48.570;7.916;2024-02-04T10:15:30;9.90;99.90
10155;DHT22;5118;48.570;7.916;2024-02-04T10:18:03;10.10;99.90
10155;DHT22;5118;48.570;7.916;2024-02-04T10:20:32;10.20;99.90
10155;DHT22;5118;48.570;7.916;2024-02-04T10:23:01;10.30;99.90
10155;DHT22;5118;48.570;7.916;2024-02-04T10:25:29;10.40;99.90
10155;DHT22;5118;48.570;7.916;2024-02-04T10:27:59;10.50;99.90
10155;DHT22;5118;48.570;7.916;2024-02-04T10:30:27;10.50;99.90
10155;DHT22;5118;48.570;7.916;2024-02-04T10:32:55;10.50;99.90
10155;DHT22;5118;48.570;7.916;2024-02-04T10:35:25;10.40;99.90
10155;DHT22;5118;48.570;7.916;2024-02-04T10:37:53;10.40;99.90
10155;DHT22;5118;48.570;7.916;2024-02-04T10:40:22;10.40;99.90
10155;DHT22;5118;48.570;7.916;2024-02-04T10:42:55;10.50;99.90
10155;DHT22;5118;48.570;7.916;2024-02-04T10:45:26;10.60;99.90
10155;DHT22;5118;48.570;7.916;2024-02-04T10:48:00;10.70;99.90
10155;DHT22;5118;48.570;7.916;2024-02-04T10:50:32;10.70;99.90
10155;DHT22;5118;48.570;7.916;2024-02-04T10:53:05;10.60;99.90
10155;DHT22;5118;48.570;7.916;2024-02-04T10:55:41;10.70;99.90
10155;DHT22;5118;48.570;7.916;2024-02-04T10:58:11;10.70;99.90
10155;DHT22;5118;48.570;7.916;2024-02-04T11:00:41;10.70;99.90
10155;DHT22;5118;48.570;7.916;2024-02-04T11:03:10;10.80;99.90
10155;DHT22;5118;48.570;7.916;2024-02-04T11:05:42;10.90;99.90
10155;DHT22;5118;48.570;7.916;2024-02-04T11:08:12;11.00;99.90
10155;DHT22;5118;48.570;7.916;2024-02-04T11:10:40;11.20;99.90
10155;DHT22;5118;48.570;7.916;2024-02-04T11:13:10;11.40;99.90
10155;DHT22;5118;48.570;7.916;2024-02-04T11:15:40;11.50;99.90
10155;DHT22;5118;48.570;7.916;2024-02-04T11:18:30;11.50;99.90
10155;DHT22;5118;48.570;7.916;2024-02-04T11:21:17;11.50;99.90
10155;DHT22;5118;48.570;7.916;2024-02-04T11:23:56;11.50;99.90
10155;DHT22;5118;48.570;7.916;2024-02-04T11:26:27;11.60;99.90
10155;DHT22;5118;48.570;7.916;2024-02-04T11:28:56;11.60;99.90
10155;DHT22;5118;48.570;7.916;2024-02-04T11:31:28;11.60;99.90
10155;DHT22;5118;48.570;7.916;2024-02-04T11:33:57;11.60;99.90
10155;DHT22;5118;48.570;7.916;2024-02-04T11:36:27;11.40;99.90
10155;DHT22;5118;48.570;7.916;2024-02-04T11:38:56;11.40;99.90
10155;DHT22;5118;48.570;7.916;2024-02-04T11:41:25;11.50;99.90
10155;DHT22;5118;48.570;7.916;2024-02-04T11:43:56;11.60;99.90
10155;DHT22;5118;48.570;7.916;2024-02-04T11:46:30;11.80;99.90
10155;DHT22;5118;48.570;7.916;2024-02-04T11:49:00;12.00;99.90
10155;DHT22;5118;48.570;7.916;2024-02-04T11:51:31;12.00;99.90
10155;DHT22;5118;48.570;7.916;2024-02-04T11:54:00;12.00;99.90
10155;DHT22;5118;48.570;7.916;2024-02-04T11:56:32;12.00;99.90
10155;DHT22;5118;48.570;7.916;2024-02-04T11:59:03;12.00;99.90
10155;DHT22;5118;48.570;7.916;2024-02-04T12:01:32;12.00;99.90
10155;DHT22;5118;48.570;7.916;2024-02-04T12:04:09;12.00;99.90
10155;DHT22;5118;48.570;7.916;2024-02-04T12:06:40;12.00;99.90
10155;DHT22;5118;48.570;7.916;2024-02-04T12:09:09;11.90;99.90
10155;DHT22;5118;48.570;7.916;2024-02-04T12:11:38;11.90;99.90
10155;DHT22;5118;48.570;7.916;2024-02-04T12:14:07;11.90;99.90
10155;DHT22;5118;48.570;7.916;2024-02-04T12:16:35;11.90;99.90
10155;DHT22;5118;48.570;7.916;2024-02-04T12:19:04;11.80;99.90
10155;DHT22;5118;48.570;7.916;2024-02-04T12:21:35;11.70;99.90
10155;DHT22;5118;48.570;7.916;2024-02-04T12:24:06;11.70;99.90
10155;DHT22;5118;48.570;7.916;2024-02-04T12:26:36;11.70;99.90
10155;DHT22;5118;48.570;7.916;2024-02-04T12:29:06;11.70;99.90
10155;DHT22;5118;48.570;7.916;2024-02-04T12:31:34;11.50;99.90
10155;DHT22;5118;48.570;7.916;2024-02-04T12:34:05;11.50;99.90
10155;DHT22;5118;48.570;7.916;2024-02-04T12:36:33;11.40;99.90
10155;DHT22;5118;48.570;7.916;2024-02-04T12:39:03;11.30;99.90
10155;DHT22;5118;48.570;7.916;2024-02-04T12:41:36;11.20;99.90
10155;DHT22;5118;48.570;7.916;2024-02-04T12:44:04;11.10;99.90
10155;DHT22;5118;48.570;7.916;2024-02-04T12:46:33;11.00;99.90
10155;DHT22;5118;48.570;7.916;2024-02-04T12:49:01;10.90;99.90
10155;DHT22;5118;48.570;7.916;2024-02-04T12:51:33;10.90;99.90
10155;DHT22;5118;48.570;7.916;2024-02-04T12:54:03;10.80;99.90
10155;DHT22;5118;48.570;7.916;2024-02-04T12:56:45;10.80;99.90
10155;DHT22;5118;48.570;7.916;2024-02-04T12:59:24;10.70;99.90
10155;DHT22;5118;48.570;7.916;2024-02-04T13:01:57;10.70;99.90
10155;DHT22;5118;48.570;7.916;2024-02-04T13:04:33;10.70;99.90
10155;DHT22;5118;48.570;7.916;2024-02-04T13:07:07;10.70;99.90
10155;DHT22;5118;48.570;7.916;2024-02-04T13:09:36;10.60;99.90
10155;DHT22;5118;48.570;7.916;2024-02-04T13:12:08;10.60;99.90
10155;DHT22;5118;48.570;7.916;2024-02-04T13:14:37;10.70;99.90
10155;DHT22;5118;48.570;7.916;2024-02-04T13:17:06;10.70;99.90
10155;DHT22;5118;48.570;7.916;2024-02-04T13:19:35;10.70;99.90
10155;DHT22;5118;48.570;7.916;2024-02-04T13:22:04;10.80;99.90
10155;DHT22;5118;48.570;7.916;2024-02-04T13:24:35;10.90;99.90
10155;DHT22;5118;48.570;7.916;2024-02-04T13:27:04;11.00;99.90
10155;DHT22;5118;48.570;7.916;2024-02-04T13:29:35;11.10;99.90
10155;DHT22;5118;48.570;7.916;2024-02-04T13:32:04;11.00;99.90
10155;DHT22;5118;48.570;7.916;2024-02-04T13:34:33;11.10;99.90
10155;DHT22;5118;48.570;7.916;2024-02-04T13:37:02;11.10;99.90
10155;DHT22;5118;48.570;7.916;2024-02-04T13:39:30;11.00;99.90
10155;DHT22;5118;48.570;7.916;2024-02-04T13:41:59;11.00;99.90
10155;DHT22;5118;48.570;7.916;2024-02-04T13:44:27;10.90;99.90
10155;DHT22;5118;48.570;7.916;2024-02-04T13:46:57;10.90;99.90
10155;DHT22;5118;48.570;7.916;2024-02-04T13:49:25;10.80;99.90
10155;DHT22;5118;48.570;7.916;2024-02-04T13:51:54;10.80;99.90
10155;DHT22;5118;48.570;7.916;2024-02-04T13:54:22;10.80;99.90
10155;DHT22;5118;48.570;7.916;2024-02-04T13:56:50;10.80;99.90
10155;DHT22;5118;48.570;7.916;2024-02-04T13:59:19;10.80;99.90
10155;DHT22;5118;48.570;7.916;2024-02-04T14:01:47;10.80;99.90
10155;DHT22;5118;48.570;7.916;2024-02-04T14:04:18;10.80;99.90
10155;DHT22;5118;48.570;7.916;2024-02-04T14:06:47;10.80;99.90
10155;DHT22;5118;48.570;7.916;2024-02-04T14:09:16;10.80;99.90
10155;DHT22;5118;48.570;7.916;2024-02-04T14:11:46;10.80;99.90
10155;DHT22;5118;48.570;7.916;2024-02-04T14:14:15;10.80;99.90
10155;DHT22;5118;48.570;7.916;2024-02-04T14:16:43;10.80;99.90
10155;DHT22;5118;48.570;7.916;2024-02-04T14:19:11;10.80;99.90
10155;DHT22;5118;48.570;7.916;2024-02-04T14:21:42;10.90;99.90
10155;DHT22;5118;48.570;7.916;2024-02-04T14:24:10;10.80;99.90
10155;DHT22;5118;48.570;7.916;2024-02-04T14:26:39;10.70;99.90
10155;DHT22;5118;48.570;7.916;2024-02-04T14:29:08;10.70;99.90
10155;DHT22;5118;48.570;7.916;2024-02-04T14:31:36;10.70;99.90
10155;DHT22;5118;48.570;7.916;2024-02-04T14:34:04;10.70;99.90
10155;DHT22;5118;48.570;7.916;2024-02-04T14:36:33;10.60;99.90
10155;DHT22;5118;48.570;7.916;2024-02-04T14:39:03;10.60;99.90
10155;DHT22;5118;48.570;7.916;2024-02-04T14:41:34;10.60;99.90
10155;DHT22;5118;48.570;7.916;2024-02-04T14:44:03;10.60;99.90
10155;DHT22;5118;48.570;7.916;2024-02-04T14:46:32;10.60;99.90
10155;DHT22;5118;48.570;7.916;2024-02-04T14:49:04;10.60;99.90
10155;DHT22;5118;48.570;7.916;2024-02-04T14:51:32;10.60;99.90
10155;DHT22;5118;48.570;7.916;2024-02-04T14:54:04;10.60;99.90
10155;DHT22;5118;48.570;7.916;2024-02-04T14:56:37;10.60;99.90
10155;DHT22;5118;48.570;7.916;2024-02-04T14:59:05;10.50;99.90
10155;DHT22;5118;48.570;7.916;2024-02-04T15:01:48;10.40;99.90
10155;DHT22;5118;48.570;7.916;2024-02-04T15:04:18;10.40;99.90
10155;DHT22;5118;48.570;7.916;2024-02-04T15:06:47;10.50;99.90
10155;DHT22;5118;48.570;7.916;2024-02-04T15:09:17;10.40;99.90
10155;DHT22;5118;48.570;7.916;2024-02-04T15:11:48;10.40;99.90
10155;DHT22;5118;48.570;7.916;2024-02-04T15:14:18;10.40;99.90
10155;DHT22;5118;48.570;7.916;2024-02-04T15:16:47;10.50;99.90
10155;DHT22;5118;48.570;7.916;2024-02-04T15:19:16;10.40;99.90
10155;DHT22;5118;48.570;7.916;2024-02-04T15:21:45;10.30;99.90
10155;DHT22;5118;48.570;7.916;2024-02-04T15:24:14;10.30;99.90
10155;DHT22;5118;48.570;7.916;2024-02-04T15:26:47;10.30;99.90
10155;DHT22;5118;48.570;7.916;2024-02-04T15:29:16;10.40;99.90
10155;DHT22;5118;48.570;7.916;2024-02-04T15:31:47;10.40;99.90
10155;DHT22;5118;48.570;7.916;2024-02-04T15:34:17;10.50;99.90
10155;DHT22;5118;48.570;7.916;2024-02-04T15:36:45;10.50;99.90
10155;DHT22;5118;48.570;7.916;2024-02-04T15:39:14;10.50;99.90
10155;DHT22;5118;48.570;7.916;2024-02-04T15:41:45;10.50;99.90
10155;DHT22;5118;48.570;7.916;2024-02-04T15:44:14;10.50;99.90
10155;DHT22;5118;48.570;7.916;2024-02-04T15:46:45;10.50;99.90
10155;DHT22;5118;48.570;7.916;2024-02-04T15:49:17;10.50;99.90
10155;DHT22;5118;48.570;7.916;2024-02-04T15:51:46;10.60;99.90
10155;DHT22;5118;48.570;7.916;2024-02-04T15:54:16;10.60;99.90
10155;DHT22;5118;48.570;7.916;2024-02-04T15:56:54;10.60;99.90
10155;DHT22;5118;48.570;7.916;2024-02-04T15:59:27;10.60;99.90
10155;DHT22;5118;48.570;7.916;2024-02-04T16:01:57;10.60;99.90
10155;DHT22;5118;48.570;7.916;2024-02-04T16:04:26;10.60;99.90
10155;DHT22;5118;48.570;7.916;2024-02-04T16:06:55;10.70;99.90
10155;DHT22;5118;48.570;7.916;2024-02-04T16:09:24;10.60;99.90